createdAt,value
2023-04-22T00:01:41.077Z,66.91
2023-04-22T00:06:42.725Z,67.08
2023-04-22T00:11:44.303Z,67.41
2023-04-22T00:16:45.974Z,67.28
2023-04-22T00:21:47.686Z,68.78
2023-04-22T00:26:49.284Z,69.12
2023-04-22T00:31:51.377Z,69.90
2023-04-22T00:36:53.129Z,69.91
2023-04-22T00:41:55.315Z,70.26
2023-04-22T00:46:57.119Z,70.51
2023-04-22T00:51:59.351Z,70.64
2023-04-22T00:57:01.010Z,70.16
2023-04-22T01:02:03.989Z,70.65
2023-04-22T01:07:06.573Z,71.00
2023-04-22T01:12:08.364Z,70.89
2023-04-22T01:17:10.657Z,70.76
2023-04-22T01:22:14.077Z,71.67
2023-04-22T01:27:15.849Z,70.88
2023-04-22T01:32:17.910Z,70.75
2023-04-22T01:37:20.571Z,70.25
2023-04-22T01:42:22.241Z,70.83
2023-04-22T01:47:23.952Z,70.82
2023-04-22T01:52:27.579Z,71.37
2023-04-22T01:57:29.549Z,72.16
2023-04-22T02:02:31.622Z,72.18
2023-04-22T02:07:33.273Z,72.37
2023-04-22T02:12:34.945Z,73.04
2023-04-22T02:17:36.580Z,73.38
2023-04-22T02:22:38.659Z,73.13
2023-04-22T02:27:40.320Z,73.56
2023-04-22T02:32:42.072Z,73.39
2023-04-22T02:37:43.717Z,73.17
2023-04-22T02:42:45.319Z,74.10
2023-04-22T02:47:47.010Z,73.68
2023-04-22T02:52:49.707Z,73.75
2023-04-22T02:57:51.419Z,73.53
2023-04-22T03:02:53.494Z,73.51
2023-04-22T03:07:59.852Z,74.22
2023-04-22T03:13:02.724Z,73.41
2023-04-22T03:18:04.885Z,73.66
2023-04-22T03:23:07.981Z,72.91
2023-04-22T03:28:10.805Z,73.24
2023-04-22T03:33:12.545Z,73.62
2023-04-22T03:38:23.126Z,72.89
2023-04-22T03:43:26.201Z,73.03
2023-04-22T03:48:37.057Z,72.63
2023-04-22T03:53:44.642Z,72.46
2023-04-22T03:58:51.624Z,73.19
2023-04-22T04:03:53.640Z,72.83
2023-04-22T04:09:01.673Z,73.40
2023-04-22T04:14:04.516Z,73.54
2023-04-22T04:19:12.647Z,73.55
2023-04-22T04:24:15.582Z,74.01
2023-04-22T04:29:23.753Z,73.89
2023-04-22T04:34:37.546Z,74.23
2023-04-22T04:39:42.267Z,73.56
2023-04-22T04:44:47.166Z,72.78
2023-04-22T04:49:50.099Z,73.31
2023-04-22T04:54:51.868Z,72.12
2023-04-22T04:59:53.806Z,71.37
2023-04-22T05:04:57.025Z,71.32
2023-04-22T05:09:59.934Z,71.86
2023-04-22T05:15:02.162Z,71.41
2023-04-22T05:20:04.975Z,70.97
2023-04-22T05:25:07.262Z,70.63
2023-04-22T05:30:09.482Z,69.45
2023-04-22T05:35:11.304Z,68.48
2023-04-22T05:40:13.349Z,68.35
2023-04-22T05:45:15.693Z,68.26
2023-04-22T05:50:17.614Z,67.12
2023-04-22T05:55:28.625Z,67.12
2023-04-22T06:00:30.416Z,66.43
2023-04-22T06:05:49.792Z,65.22
2023-04-22T06:10:51.520Z,64.99
2023-04-22T06:15:53.581Z,64.29
2023-04-22T06:20:55.754Z,62.66
2023-04-22T06:25:58.800Z,62.83
2023-04-22T06:31:02.165Z,61.34
2023-04-22T06:36:05.204Z,59.93
2023-04-22T06:41:07.574Z,58.33
2023-04-22T06:46:13.311Z,56.82
2023-04-22T06:51:35.043Z,57.40
2023-04-22T06:56:36.942Z,55.83
2023-04-22T07:01:38.542Z,55.85
2023-04-22T07:06:41.160Z,53.70
2023-04-22T07:11:42.739Z,53.40
2023-04-22T07:16:49.311Z,53.25
2023-04-22T07:21:50.979Z,51.95
2023-04-22T07:26:52.550Z,51.90
2023-04-22T07:31:54.247Z,52.05
2023-04-22T07:36:55.841Z,51.29
2023-04-22T07:41:57.723Z,50.45
2023-04-22T07:46:59.435Z,50.43
2023-04-22T07:52:01.120Z,49.59
2023-04-22T07:57:02.934Z,50.01
2023-04-22T08:02:04.544Z,49.37
2023-04-22T08:07:26.444Z,49.63
2023-04-22T08:12:27.954Z,48.71
2023-04-22T08:17:29.520Z,48.77
2023-04-22T08:22:32.067Z,48.56
2023-04-22T08:27:33.656Z,48.66
2023-04-22T08:32:35.285Z,48.00
2023-04-22T08:37:37.055Z,48.60
2023-04-22T08:42:38.636Z,47.52
2023-04-22T08:47:40.577Z,47.03
2023-04-22T08:52:43.041Z,47.41
2023-04-22T08:57:45.364Z,46.29
2023-04-22T09:02:48.320Z,45.84
2023-04-22T09:07:50.245Z,45.63
2023-04-22T09:12:52.369Z,45.55
2023-04-22T09:17:54.335Z,44.79
2023-04-22T09:22:57.287Z,44.46
2023-04-22T09:27:59.464Z,43.88
2023-04-22T09:33:03.353Z,43.67
2023-04-22T09:38:08.001Z,42.94
2023-04-22T09:43:10.724Z,43.33
2023-04-22T09:48:14.286Z,41.58
2023-04-22T09:53:17.472Z,41.80
2023-04-22T09:58:20.994Z,41.43
2023-04-22T10:03:22.687Z,41.90
2023-04-22T10:08:24.520Z,41.23
2023-04-22T10:13:26.063Z,41.86
2023-04-22T10:18:28.830Z,41.90
2023-04-22T10:23:33.030Z,42.01
2023-04-22T10:28:34.871Z,41.74
2023-04-22T10:33:37.567Z,40.89
2023-04-22T10:39:00.692Z,40.97
2023-04-22T10:44:06.324Z,40.65
2023-04-22T10:49:18.171Z,40.41
2023-04-22T10:54:31.365Z,40.92
2023-04-22T10:59:46.242Z,41.14
2023-04-22T11:04:48.325Z,41.18
2023-04-22T11:09:59.378Z,40.94
2023-04-22T11:15:15.256Z,40.67
2023-04-22T11:20:19.623Z,41.00
2023-04-22T11:25:22.271Z,40.69
2023-04-22T11:30:25.748Z,40.91
2023-04-22T11:35:30.146Z,40.80
2023-04-22T11:40:35.813Z,40.90
2023-04-22T11:45:39.889Z,40.05
2023-04-22T11:50:44.125Z,40.60
2023-04-22T11:55:47.338Z,40.19
2023-04-22T12:00:51.226Z,39.69
2023-04-22T12:05:57.783Z,39.70
2023-04-22T12:11:01.758Z,40.07
2023-04-22T12:16:07.043Z,39.89
2023-04-22T12:21:10.438Z,40.24
2023-04-22T12:26:13.224Z,39.85
2023-04-22T12:31:15.420Z,39.59
2023-04-22T12:36:18.108Z,39.48
2023-04-22T12:41:19.792Z,39.83
2023-04-22T12:46:21.452Z,40.12
2023-04-22T12:51:23.114Z,38.96
2023-04-22T12:56:26.900Z,40.05
2023-04-22T13:01:28.954Z,39.98
2023-04-22T13:06:32.325Z,39.59
2023-04-22T13:11:33.897Z,39.95
2023-04-22T13:16:35.709Z,38.75
2023-04-22T13:21:37.416Z,38.79
2023-04-22T13:26:39.097Z,38.56
2023-04-22T13:31:44.669Z,37.43
2023-04-22T13:36:46.348Z,37.73
2023-04-22T13:41:47.885Z,38.84
2023-04-22T13:46:49.547Z,38.25
2023-04-22T13:51:51.229Z,39.05
2023-04-22T13:56:53.702Z,39.21
2023-04-22T14:01:55.241Z,38.47
2023-04-22T14:06:56.810Z,38.72
2023-04-22T14:11:58.715Z,38.56
2023-04-22T14:17:00.364Z,38.23
2023-04-22T14:22:02.019Z,39.20
2023-04-22T14:27:03.704Z,38.99
2023-04-22T14:32:05.367Z,38.88
2023-04-22T14:37:06.905Z,38.72
2023-04-22T14:42:08.548Z,39.27
2023-04-22T14:47:10.170Z,39.48
2023-04-22T14:52:11.782Z,38.86
2023-04-22T14:57:13.454Z,39.02
2023-04-22T15:02:15.912Z,38.62
2023-04-22T15:07:17.719Z,38.58
2023-04-22T15:12:19.360Z,38.98
2023-04-22T15:17:21.495Z,39.05
2023-04-22T15:22:24.107Z,39.66
2023-04-22T15:27:26.948Z,39.52
2023-04-22T15:32:28.574Z,40.17
2023-04-22T15:37:30.307Z,40.43
2023-04-22T15:42:32.344Z,40.05
2023-04-22T15:47:35.003Z,40.12
2023-04-22T15:52:37.920Z,40.82
2023-04-22T15:57:40.932Z,41.11
2023-04-22T16:02:43.800Z,40.97
2023-04-22T16:07:45.633Z,41.94
2023-04-22T16:12:47.212Z,42.49
2023-04-22T16:17:48.908Z,42.38
2023-04-22T16:22:50.578Z,42.53
2023-04-22T16:27:52.169Z,43.03
2023-04-22T16:32:54.071Z,43.40
2023-04-22T16:37:55.696Z,43.52
2023-04-22T16:43:02.799Z,43.99
2023-04-22T16:48:04.401Z,43.76
2023-04-22T16:53:07.800Z,43.36
2023-04-22T16:58:09.445Z,43.53
2023-04-22T17:03:12.238Z,43.98
2023-04-22T17:08:14.044Z,44.11
2023-04-22T17:13:16.085Z,44.29
2023-04-22T17:18:17.681Z,44.60
2023-04-22T17:23:19.912Z,45.21
2023-04-22T17:28:21.523Z,44.85
2023-04-22T17:33:23.113Z,44.77
2023-04-22T17:38:24.788Z,44.85
2023-04-22T17:43:26.384Z,45.63
2023-04-22T17:48:27.947Z,46.14
2023-04-22T17:53:29.510Z,46.32
2023-04-22T17:58:31.133Z,47.03
2023-04-22T18:03:33.235Z,47.11
2023-04-22T18:08:35.137Z,47.21
2023-04-22T18:13:36.724Z,47.69
2023-04-22T18:18:38.767Z,47.89
2023-04-22T18:23:40.340Z,48.71
2023-04-22T18:28:43.482Z,49.35
2023-04-22T18:33:45.238Z,49.57
2023-04-22T18:38:46.830Z,49.91
2023-04-22T18:43:48.604Z,50.29
2023-04-22T18:48:50.421Z,50.95
2023-04-22T18:53:52.294Z,51.04
2023-04-22T18:58:55.307Z,51.54
2023-04-22T19:03:57.087Z,51.49
2023-04-22T19:08:58.886Z,51.87
2023-04-22T19:14:02.825Z,51.58
2023-04-22T19:19:04.472Z,52.13
2023-04-22T19:24:06.658Z,51.87
2023-04-22T19:29:08.656Z,52.21
2023-04-22T19:34:10.995Z,52.37
2023-04-22T19:39:12.619Z,52.67
2023-04-22T19:44:14.173Z,52.53
2023-04-22T19:49:17.225Z,52.64
2023-04-22T19:54:21.442Z,52.63
2023-04-22T19:59:23.112Z,52.72
2023-04-22T20:04:25.704Z,52.62
2023-04-22T20:09:27.528Z,52.67
2023-04-22T20:14:29.318Z,52.57
2023-04-22T20:19:31.290Z,52.92
2023-04-22T20:24:36.080Z,53.62
2023-04-22T20:29:40.674Z,55.03
2023-04-22T20:34:42.729Z,54.14
2023-04-22T20:39:44.438Z,55.03
2023-04-22T20:44:46.280Z,55.78
2023-04-22T20:49:47.911Z,55.65
2023-04-22T20:54:55.359Z,55.42
2023-04-22T20:59:57.114Z,55.99
2023-04-22T21:04:59.457Z,56.59
2023-04-22T21:10:01.252Z,55.42
2023-04-22T21:15:03.207Z,55.18
2023-04-22T21:20:05.601Z,55.53
2023-04-22T21:25:07.804Z,55.59
2023-04-22T21:30:10.125Z,55.90
2023-04-22T21:35:11.757Z,56.00
2023-04-22T21:40:13.726Z,56.15
2023-04-22T21:45:15.361Z,56.15
2023-04-22T21:50:18.069Z,56.06
2023-04-22T21:55:20.672Z,55.83
2023-04-22T22:00:24.921Z,55.67
2023-04-22T22:05:26.511Z,55.79
2023-04-22T22:10:28.103Z,55.97
2023-04-22T22:15:30.390Z,56.04
2023-04-22T22:20:32.174Z,55.97
2023-04-22T22:25:33.774Z,56.06
2023-04-22T22:30:35.421Z,55.90
2023-04-22T22:35:37.048Z,57.00
2023-04-22T22:40:38.639Z,57.58
2023-04-22T22:45:40.969Z,57.88
2023-04-22T22:50:43.574Z,57.92
2023-04-22T22:55:45.168Z,58.00
2023-04-22T23:00:46.791Z,58.72
2023-04-22T23:05:48.390Z,59.01
2023-04-22T23:10:50.444Z,59.48
2023-04-22T23:15:52.009Z,59.39
2023-04-22T23:20:53.729Z,59.21
2023-04-22T23:25:56.356Z,60.39
2023-04-22T23:30:57.999Z,60.91
2023-04-22T23:36:00.423Z,60.53
2023-04-22T23:41:02.021Z,61.23
2023-04-22T23:46:03.833Z,60.78
2023-04-22T23:51:05.444Z,60.16
2023-04-22T23:56:07.460Z,59.82
